createdAt,value
2022-09-28T00:02:23.400Z,2.50
2022-09-28T00:17:23.362Z,2.80
2022-09-28T00:32:23.485Z,2.90
2022-09-28T00:47:23.636Z,3.30
2022-09-28T01:02:23.803Z,3.20
2022-09-28T01:17:23.798Z,3.40
2022-09-28T01:32:23.962Z,3.90
2022-09-28T01:47:24.032Z,5.00
2022-09-28T02:02:24.161Z,4.90
2022-09-28T02:17:24.238Z,5.80
2022-09-28T02:32:24.355Z,5.00
2022-09-28T02:47:24.481Z,5.10
2022-09-28T03:02:24.618Z,5.20
2022-09-28T03:17:24.690Z,5.00
2022-09-28T03:32:24.814Z,5.50
2022-09-28T03:47:24.882Z,10.20
2022-09-28T04:02:25.116Z,5.70
2022-09-28T04:17:25.640Z,6.40
2022-09-28T04:32:25.801Z,7.80
2022-09-28T04:47:25.837Z,6.50
2022-09-28T05:02:25.985Z,7.20
2022-09-28T05:17:26.079Z,7.00
2022-09-28T05:32:26.157Z,9.00
2022-09-28T05:47:26.243Z,9.50
2022-09-28T06:02:26.366Z,9.80
2022-09-28T06:17:26.439Z,8.40
2022-09-28T06:32:26.581Z,8.60
2022-09-28T06:47:26.694Z,9.70
2022-09-28T07:02:26.821Z,9.00
2022-09-28T07:17:27.067Z,9.20
2022-09-28T07:32:27.079Z,8.80
2022-09-28T07:47:32.291Z,9.90
2022-09-28T08:02:32.366Z,8.20
2022-09-28T08:17:32.430Z,7.50
2022-09-28T08:32:32.554Z,7.70
2022-09-28T08:47:32.591Z,6.10
2022-09-28T09:02:32.768Z,5.50
2022-09-28T09:17:32.792Z,5.20
2022-09-28T09:32:32.912Z,5.80
2022-09-28T09:47:32.975Z,7.40
2022-09-28T10:02:33.186Z,7.10
2022-09-28T10:17:33.194Z,4.80
2022-09-28T10:32:33.301Z,4.50
2022-09-28T10:47:33.373Z,4.20
2022-09-28T11:02:36.024Z,3.90
2022-09-28T11:17:36.575Z,2.40
2022-09-28T11:32:36.696Z,2.00
2022-09-28T11:47:36.785Z,2.00
2022-09-28T12:02:37.218Z,1.60
2022-09-28T12:17:37.038Z,1.40
2022-09-28T12:32:37.041Z,1.70
2022-09-28T12:47:37.253Z,1.60
2022-09-28T13:02:37.314Z,1.00
2022-09-28T13:17:37.386Z,1.50
2022-09-28T13:32:37.535Z,1.00
2022-09-28T13:47:37.572Z,1.30
2022-09-28T14:02:37.720Z,2.40
2022-09-28T14:17:37.747Z,1.30
2022-09-28T14:32:37.873Z,1.20
2022-09-28T14:47:37.976Z,1.20
2022-09-28T15:02:38.051Z,1.20
2022-09-28T15:17:40.071Z,4.50
2022-09-28T15:32:40.241Z,2.80
2022-09-28T15:47:40.318Z,3.30
2022-09-28T16:02:40.550Z,3.10
2022-09-28T16:17:40.536Z,2.30
2022-09-28T16:32:40.687Z,3.00
2022-09-28T16:47:40.763Z,2.50
2022-09-28T17:02:46.601Z,5.30
2022-09-28T17:17:45.965Z,6.10
2022-09-28T17:32:46.025Z,7.50
2022-09-28T17:47:46.201Z,9.50
2022-09-28T18:02:46.323Z,6.50
2022-09-28T18:17:46.360Z,11.90
2022-09-28T18:32:46.463Z,6.50
2022-09-28T18:47:46.706Z,6.30
2022-09-28T19:02:47.818Z,6.50
2022-09-28T19:17:48.040Z,8.70
2022-09-28T19:32:48.257Z,8.20
2022-09-28T19:47:48.300Z,8.00
2022-09-28T20:02:48.456Z,8.80
2022-09-28T20:17:49.051Z,7.60
2022-09-28T20:32:49.748Z,6.20
2022-09-28T20:47:50.210Z,6.40
2022-09-28T21:02:50.358Z,7.40
2022-09-28T21:17:50.442Z,8.70
2022-09-28T21:32:50.539Z,8.50
2022-09-28T21:47:50.630Z,8.90
2022-09-28T22:02:50.867Z,9.10
2022-09-28T22:17:50.835Z,8.50
2022-09-28T22:32:50.943Z,7.80
2022-09-28T22:47:51.069Z,7.70
2022-09-28T23:02:51.201Z,7.90
2022-09-28T23:17:51.292Z,8.20
2022-09-28T23:32:51.412Z,9.70
2022-09-28T23:47:51.555Z,10.00
